createdAt,value
2022-12-22T00:02:39.035Z,97547.30
2022-12-22T00:05:36.070Z,97544.05
2022-12-22T00:08:23.510Z,97541.23
2022-12-22T00:11:11.850Z,97539.39
2022-12-22T00:14:03.675Z,97535.39
2022-12-22T00:16:56.025Z,97534.86
2022-12-22T00:19:42.759Z,97535.46
2022-12-22T00:22:39.696Z,97534.95
2022-12-22T00:25:28.363Z,97533.80
2022-12-22T00:28:15.454Z,97532.91
2022-12-22T00:31:03.182Z,97530.64
2022-12-22T00:33:50.342Z,97528.36
2022-12-22T00:36:42.443Z,97523.14
2022-12-22T00:39:32.782Z,97522.35
2022-12-22T00:42:19.369Z,97517.67
2022-12-22T00:45:06.288Z,97511.99
2022-12-22T00:47:53.506Z,97511.42
2022-12-22T00:50:50.121Z,97508.55
2022-12-22T00:53:37.208Z,97505.91
2022-12-22T00:56:25.144Z,97505.88
2022-12-22T00:59:15.184Z,97502.01
2022-12-22T01:02:01.807Z,97501.24
2022-12-22T01:04:49.179Z,97496.64
2022-12-22T01:07:41.016Z,97491.98
2022-12-22T01:10:32.409Z,97487.52
2022-12-22T01:13:19.747Z,97487.10
2022-12-22T01:16:06.408Z,97481.31
2022-12-22T01:18:53.259Z,97479.48
2022-12-22T01:21:39.861Z,97481.09
2022-12-22T01:24:31.392Z,97486.27
2022-12-22T01:27:18.654Z,97482.41
2022-12-22T01:30:05.541Z,97480.52
2022-12-22T01:32:51.950Z,97475.50
2022-12-22T01:35:41.529Z,97475.05
2022-12-22T01:38:28.600Z,97470.70
2022-12-22T01:41:17.393Z,97469.13
2022-12-22T01:44:03.997Z,97471.59
2022-12-22T01:46:56.220Z,97472.95
2022-12-22T01:49:48.846Z,97469.10
2022-12-22T01:52:39.469Z,97466.52
2022-12-22T01:55:30.864Z,97468.11
2022-12-22T01:58:17.443Z,97463.02
2022-12-22T02:01:05.771Z,97465.17
2022-12-22T02:03:53.436Z,97465.10
2022-12-22T02:07:12.660Z,97465.08
2022-12-22T02:10:22.518Z,97467.23
2022-12-22T02:13:23.791Z,97467.79
2022-12-22T02:16:20.158Z,97465.56
2022-12-22T02:19:16.392Z,97462.57
2022-12-22T02:22:18.568Z,97459.12
2022-12-22T02:25:12.099Z,97457.17
2022-12-22T02:28:00.096Z,97459.42
2022-12-22T02:30:47.557Z,97462.13
2022-12-22T02:33:34.600Z,97461.89
2022-12-22T02:36:52.101Z,97453.36
2022-12-22T02:40:11.812Z,97455.27
2022-12-22T02:43:13.353Z,97452.40
2022-12-22T02:46:28.523Z,97456.85
2022-12-22T02:49:21.049Z,97460.27
2022-12-22T02:52:20.132Z,97459.50
2022-12-22T02:55:06.643Z,97454.35
2022-12-22T02:57:52.916Z,97454.41
2022-12-22T03:00:40.111Z,97455.16
2022-12-22T03:03:27.036Z,97453.60
2022-12-22T03:06:13.849Z,97451.52
2022-12-22T03:09:00.701Z,97445.71
2022-12-22T03:11:47.103Z,97443.30
2022-12-22T03:14:33.719Z,97442.20
2022-12-22T03:17:20.368Z,97443.26
2022-12-22T03:20:06.843Z,97443.09
2022-12-22T03:22:53.513Z,97442.94
2022-12-22T03:25:40.393Z,97444.38
2022-12-22T03:28:09.250Z,97441.20
2022-12-22T03:30:38.231Z,97441.83
2022-12-22T03:33:06.612Z,97439.48
2022-12-22T03:35:34.682Z,97437.27
2022-12-22T03:38:03.781Z,97435.94
2022-12-22T03:40:32.152Z,97433.56
2022-12-22T03:43:18.693Z,97430.58
2022-12-22T03:46:05.574Z,97424.96
2022-12-22T03:48:33.570Z,97420.17
2022-12-22T03:51:01.829Z,97416.93
2022-12-22T03:53:30.211Z,97414.77
2022-12-22T03:56:01.296Z,97406.67
2022-12-22T03:58:33.859Z,97406.36
2022-12-22T04:01:08.189Z,97403.48
2022-12-22T04:03:36.205Z,97401.64
2022-12-22T04:06:04.495Z,97400.61
2022-12-22T04:08:32.966Z,97398.20
2022-12-22T04:11:20.084Z,97395.27
2022-12-22T04:13:48.050Z,97398.58
2022-12-22T04:16:16.365Z,97399.61
2022-12-22T04:18:44.356Z,97399.19
2022-12-22T04:21:12.576Z,97397.52
2022-12-22T04:23:41.216Z,97392.95
2022-12-22T04:26:09.686Z,97391.67
2022-12-22T04:28:37.648Z,97389.36
2022-12-22T04:31:05.701Z,97390.52
2022-12-22T04:33:33.726Z,97384.78
2022-12-22T04:36:02.140Z,97383.70
2022-12-22T04:38:30.318Z,97386.95
2022-12-22T04:40:58.353Z,97382.69
2022-12-22T04:43:26.659Z,97386.52
2022-12-22T04:45:55.771Z,97385.50
2022-12-22T04:48:25.839Z,97387.60
2022-12-22T04:50:56.171Z,97385.42
2022-12-22T04:53:26.197Z,97388.17
2022-12-22T04:56:01.044Z,97388.09
2022-12-22T04:58:29.883Z,97390.98
2022-12-22T05:01:07.584Z,97387.58
2022-12-22T05:03:35.812Z,97389.42
2022-12-22T05:06:04.329Z,97395.17
2022-12-22T05:08:32.399Z,97393.54
2022-12-22T05:11:02.894Z,97391.72
2022-12-22T05:13:32.004Z,97395.95
2022-12-22T05:16:07.867Z,97387.68
2022-12-22T05:18:37.650Z,97387.63
2022-12-22T05:21:18.119Z,97390.98
2022-12-22T05:23:46.699Z,97388.89
2022-12-22T05:26:17.277Z,97386.58
2022-12-22T05:28:46.801Z,97384.02
2022-12-22T05:31:21.623Z,97382.98
2022-12-22T05:33:49.999Z,97380.86
2022-12-22T05:36:19.094Z,97379.30
2022-12-22T05:38:47.181Z,97372.34
2022-12-22T05:41:15.353Z,97367.25
2022-12-22T05:43:43.325Z,97368.71
2022-12-22T05:46:12.607Z,97363.25
2022-12-22T05:48:40.834Z,97363.17
2022-12-22T05:51:09.691Z,97364.41
2022-12-22T05:53:38.370Z,97365.48
2022-12-22T05:56:07.939Z,97365.33
2022-12-22T05:58:38.982Z,97371.44
2022-12-22T06:01:07.335Z,97371.20
2022-12-22T06:03:35.476Z,97373.75
2022-12-22T06:06:03.764Z,97374.90
2022-12-22T06:08:31.925Z,97375.33
2022-12-22T06:11:00.299Z,97377.42
2022-12-22T06:13:28.395Z,97380.44
2022-12-22T06:15:56.838Z,97383.13
2022-12-22T06:18:25.458Z,97381.89
2022-12-22T06:20:53.841Z,97378.43
2022-12-22T06:23:22.708Z,97385.71
2022-12-22T06:25:59.591Z,97387.73
2022-12-22T06:28:28.692Z,97388.83
2022-12-22T06:30:56.960Z,97388.73
2022-12-22T06:33:25.340Z,97393.52
2022-12-22T06:35:58.699Z,97395.33
2022-12-22T06:38:28.358Z,97392.71
2022-12-22T06:40:56.989Z,97396.27
2022-12-22T06:43:25.917Z,97393.72
2022-12-22T06:45:54.071Z,97394.44
2022-12-22T06:48:22.339Z,97398.38
2022-12-22T06:50:50.855Z,97399.08
2022-12-22T06:53:19.031Z,97401.95
2022-12-22T06:55:47.322Z,97403.59
2022-12-22T06:58:15.582Z,97409.06
2022-12-22T07:00:45.458Z,97404.45
2022-12-22T07:03:13.813Z,97413.20
2022-12-22T07:05:42.464Z,97420.63
2022-12-22T07:08:10.540Z,97422.73
2022-12-22T07:10:57.232Z,97416.98
2022-12-22T07:13:34.255Z,97414.54
2022-12-22T07:16:04.976Z,97412.81
2022-12-22T07:18:35.596Z,97411.20
2022-12-22T07:21:05.705Z,97409.15
2022-12-22T07:23:34.185Z,97399.83
2022-12-22T07:26:02.865Z,97401.98
2022-12-22T07:28:34.207Z,97406.25
2022-12-22T07:31:03.608Z,97401.33
2022-12-22T07:33:32.257Z,97397.46
2022-12-22T07:36:06.282Z,97397.05
2022-12-22T07:38:36.135Z,97395.21
2022-12-22T07:41:25.701Z,97394.80
2022-12-22T07:43:54.521Z,97396.13
2022-12-22T07:46:24.711Z,97392.66
2022-12-22T07:49:13.203Z,97389.69
2022-12-22T07:51:43.455Z,97384.38
2022-12-22T07:54:14.148Z,97381.71
2022-12-22T07:56:43.713Z,97383.59
2022-12-22T07:59:12.837Z,97382.00
2022-12-22T08:01:41.838Z,97379.66
2022-12-22T08:04:11.386Z,97373.02
2022-12-22T08:06:40.317Z,97374.17
2022-12-22T08:09:09.296Z,97371.11
2022-12-22T08:11:37.393Z,97366.17
2022-12-22T08:14:05.772Z,97364.91
2022-12-22T08:16:34.098Z,97369.72
2022-12-22T08:19:04.275Z,97364.93
2022-12-22T08:21:32.814Z,97365.68
2022-12-22T08:24:01.062Z,97361.70
2022-12-22T08:26:40.705Z,97361.03
2022-12-22T08:29:20.213Z,97368.61
2022-12-22T08:31:48.342Z,97370.21
2022-12-22T08:34:16.772Z,97368.07
2022-12-22T08:36:49.389Z,97369.44
2022-12-22T08:39:20.708Z,97371.67
2022-12-22T08:41:52.126Z,97372.60
2022-12-22T08:44:24.252Z,97368.29
2022-12-22T08:46:54.270Z,97367.28
2022-12-22T08:49:23.017Z,97363.75
2022-12-22T08:51:51.897Z,97362.67
2022-12-22T08:54:20.612Z,97360.51
2022-12-22T08:56:49.957Z,97355.79
2022-12-22T08:59:17.945Z,97357.47
2022-12-22T09:01:50.931Z,97352.47
2022-12-22T09:04:23.216Z,97347.83
2022-12-22T09:06:53.612Z,97342.64
2022-12-22T09:09:21.719Z,97339.54
2022-12-22T09:11:50.348Z,97343.14
2022-12-22T09:14:18.572Z,97343.73
2022-12-22T09:16:46.724Z,97332.30
2022-12-22T09:19:14.719Z,97326.61
2022-12-22T09:21:43.411Z,97327.88
2022-12-22T09:24:11.640Z,97325.10
2022-12-22T09:26:40.284Z,97317.55
2022-12-22T09:29:08.546Z,97316.36
2022-12-22T09:31:36.969Z,97314.70
2022-12-22T09:34:04.956Z,97315.27
2022-12-22T09:36:34.089Z,97317.94
2022-12-22T09:39:06.773Z,97316.70
2022-12-22T09:41:58.019Z,97310.61
2022-12-22T09:44:31.322Z,97310.56
2022-12-22T09:47:03.100Z,97305.66
2022-12-22T09:49:31.424Z,97304.10
2022-12-22T09:52:02.628Z,97306.16
2022-12-22T09:54:31.151Z,97307.61
2022-12-22T09:56:59.421Z,97302.73
2022-12-22T09:59:28.851Z,97305.55
2022-12-22T10:02:34.486Z,97307.94
2022-12-22T10:05:26.870Z,97305.64
2022-12-22T10:08:02.071Z,97305.73
2022-12-22T10:10:31.660Z,97305.16
2022-12-22T10:13:03.112Z,97296.10
2022-12-22T10:15:40.166Z,97292.73
2022-12-22T10:18:10.832Z,97294.25
2022-12-22T10:20:39.999Z,97296.96
2022-12-22T10:23:23.682Z,97303.64
2022-12-22T10:26:27.611Z,97300.98
2022-12-22T10:28:51.730Z,97295.58
2022-12-22T10:31:27.500Z,97289.43
2022-12-22T10:34:09.513Z,97284.51
2022-12-22T10:36:39.014Z,97281.40
2022-12-22T10:39:11.387Z,97276.77
2022-12-22T10:41:47.316Z,97276.02
2022-12-22T10:44:26.182Z,97277.67
2022-12-22T10:47:17.136Z,97279.13
2022-12-22T10:52:29.481Z,97278.79
2022-12-22T10:55:22.454Z,97277.17
2022-12-22T10:57:50.752Z,97269.56
2022-12-22T11:00:27.114Z,97263.22
2022-12-22T11:03:00.933Z,97263.63
2022-12-22T11:05:29.925Z,97270.68
2022-12-22T11:08:13.237Z,97267.45
2022-12-22T11:11:07.927Z,97256.80
2022-12-22T11:13:55.581Z,97253.81
2022-12-22T11:16:46.532Z,97253.45
2022-12-22T11:19:55.640Z,97245.30
2022-12-22T11:22:46.570Z,97239.84
2022-12-22T11:25:14.464Z,97232.53
2022-12-22T11:28:19.898Z,97227.84
2022-12-22T11:31:20.447Z,97231.27
2022-12-22T11:34:28.595Z,97226.56
2022-12-22T11:37:15.246Z,97226.11
2022-12-22T11:39:57.442Z,97222.62
2022-12-22T11:42:58.317Z,97222.60
2022-12-22T11:45:54.396Z,97224.00
2022-12-22T11:48:32.212Z,97218.95
2022-12-22T11:51:36.131Z,97221.09
2022-12-22T11:54:11.967Z,97225.41
2022-12-22T11:56:44.548Z,97222.35
2022-12-22T11:59:24.411Z,97222.02
2022-12-22T12:02:11.456Z,97226.02
2022-12-22T12:05:06.945Z,97226.95
2022-12-22T12:07:41.224Z,97224.69
2022-12-22T12:10:56.227Z,97222.93
2022-12-22T12:13:37.654Z,97226.00
2022-12-22T12:16:24.003Z,97219.63
2022-12-22T12:19:23.111Z,97214.00
2022-12-22T12:22:00.666Z,97207.64
2022-12-22T12:25:02.015Z,97201.25
2022-12-22T12:27:51.146Z,97192.81
2022-12-22T12:30:38.071Z,97192.92
2022-12-22T12:33:16.050Z,97191.84
2022-12-22T12:36:03.264Z,97201.45
2022-12-22T12:39:07.506Z,97207.09
2022-12-22T12:41:36.583Z,97196.45
2022-12-22T12:44:06.146Z,97196.57
2022-12-22T12:46:55.375Z,97206.75
2022-12-22T12:49:36.213Z,97215.65
2022-12-22T12:52:11.779Z,97212.39
2022-12-22T12:54:43.693Z,97220.66
2022-12-22T12:57:31.159Z,97226.45
2022-12-22T13:00:00.813Z,97230.42
2022-12-22T13:02:32.232Z,97242.46
2022-12-22T13:05:13.660Z,97232.91
2022-12-22T13:08:11.617Z,97227.52
2022-12-22T13:10:49.689Z,97224.41
2022-12-22T13:13:27.078Z,97232.39
2022-12-22T13:16:10.337Z,97235.10
2022-12-22T13:18:47.457Z,97228.10
2022-12-22T13:24:25.213Z,97235.33
2022-12-22T13:26:56.206Z,97234.10
2022-12-22T13:29:28.225Z,97233.39
2022-12-22T13:32:02.859Z,97232.84
2022-12-22T13:35:30.377Z,97228.83
2022-12-22T13:37:47.529Z,97233.63
2022-12-22T13:40:22.445Z,97236.07
2022-12-22T13:42:54.349Z,97238.53
2022-12-22T13:45:28.526Z,97239.70
2022-12-22T13:47:56.904Z,97239.64
2022-12-22T13:50:36.665Z,97238.72
2022-12-22T13:53:08.269Z,97233.53
2022-12-22T13:55:37.113Z,97229.66
2022-12-22T13:58:09.466Z,97229.27
2022-12-22T14:00:37.670Z,97228.84
2022-12-22T14:03:41.690Z,97227.83
2022-12-22T14:06:34.403Z,97229.20
2022-12-22T14:09:25.872Z,97232.82
2022-12-22T14:12:03.874Z,97229.11
2022-12-22T14:14:38.879Z,97223.23
2022-12-22T14:17:22.316Z,97226.06
2022-12-22T14:19:52.733Z,97226.86
2022-12-22T14:22:43.843Z,97231.86
2022-12-22T14:25:32.717Z,97233.95
2022-12-22T14:28:01.388Z,97238.78
2022-12-22T14:30:38.795Z,97245.02
2022-12-22T14:33:28.588Z,97249.69
2022-12-22T14:36:24.086Z,97251.05
2022-12-22T14:38:52.441Z,97253.91
2022-12-22T14:41:44.346Z,97264.30
2022-12-22T14:44:15.408Z,97261.81
2022-12-22T14:46:45.586Z,97263.64
2022-12-22T14:49:19.845Z,97265.05
2022-12-22T14:52:04.036Z,97268.06
2022-12-22T14:54:32.484Z,97269.95
2022-12-22T14:57:15.547Z,97268.58
2022-12-22T15:00:05.254Z,97269.27
2022-12-22T15:02:39.641Z,97271.64
2022-12-22T15:05:24.571Z,97271.81
2022-12-22T15:08:10.742Z,97275.98
2022-12-22T15:10:42.767Z,97273.76
2022-12-22T15:13:19.013Z,97276.64
2022-12-22T15:15:47.286Z,97277.62
2022-12-22T15:18:15.985Z,97283.41
2022-12-22T15:20:44.274Z,97284.95
2022-12-22T15:23:14.853Z,97284.16
2022-12-22T15:25:43.454Z,97285.23
2022-12-22T15:28:11.486Z,97287.23
2022-12-22T15:30:39.948Z,97287.55
2022-12-22T15:33:16.581Z,97287.83
2022-12-22T15:35:45.184Z,97292.38
2022-12-22T15:38:19.169Z,97293.55
2022-12-22T15:40:47.749Z,97290.52
2022-12-22T15:43:55.218Z,97286.35
2022-12-22T15:46:07.061Z,97287.20
2022-12-22T15:48:38.574Z,97287.90
2022-12-22T15:51:21.122Z,97284.11
2022-12-22T15:53:50.306Z,97286.92
2022-12-22T15:56:21.778Z,97293.50
2022-12-22T15:58:49.969Z,97292.29
2022-12-22T16:01:18.297Z,97296.39
2022-12-22T16:03:46.708Z,97297.95
2022-12-22T16:06:17.698Z,97298.86
2022-12-22T16:08:52.035Z,97297.09
2022-12-22T16:11:20.420Z,97296.19
2022-12-22T16:13:50.445Z,97295.75
2022-12-22T16:16:18.604Z,97297.99
2022-12-22T16:18:46.739Z,97296.93
2022-12-22T16:21:18.614Z,97297.58
2022-12-22T16:23:49.462Z,97297.79
2022-12-22T16:26:20.945Z,97305.97
2022-12-22T16:28:49.215Z,97310.67
2022-12-22T16:31:22.413Z,97308.27
2022-12-22T16:33:50.990Z,97311.48
2022-12-22T16:36:19.191Z,97306.36
2022-12-22T16:38:48.095Z,97301.91
2022-12-22T16:41:22.049Z,97301.53
2022-12-22T16:43:51.018Z,97299.17
2022-12-22T16:46:22.377Z,97299.95
2022-12-22T16:48:54.792Z,97301.11
2022-12-22T16:51:26.700Z,97302.02
2022-12-22T16:53:54.655Z,97312.02
2022-12-22T16:56:28.234Z,97319.13
2022-12-22T16:58:57.317Z,97317.80
2022-12-22T17:01:31.440Z,97314.16
2022-12-22T17:04:05.648Z,97317.42
2022-12-22T17:06:35.271Z,97314.95
2022-12-22T17:09:07.310Z,97310.67
2022-12-22T17:11:37.370Z,97310.20
2022-12-22T17:14:16.824Z,97305.50
2022-12-22T17:16:44.851Z,97298.65
2022-12-22T17:19:13.291Z,97292.77
2022-12-22T17:21:41.267Z,97285.89
2022-12-22T17:24:14.090Z,97286.55
2022-12-22T17:26:42.663Z,97288.36
2022-12-22T17:29:17.309Z,97282.33
2022-12-22T17:31:45.445Z,97279.22
2022-12-22T17:34:16.753Z,97285.03
2022-12-22T17:36:47.560Z,97288.98
2022-12-22T17:39:18.771Z,97294.49
2022-12-22T17:41:54.045Z,97290.17
2022-12-22T17:44:26.797Z,97286.97
2022-12-22T17:46:55.308Z,97288.63
2022-12-22T17:49:23.576Z,97285.52
2022-12-22T17:51:51.652Z,97285.20
2022-12-22T17:54:25.898Z,97289.79
2022-12-22T17:56:59.602Z,97282.75
2022-12-22T17:59:27.743Z,97278.30
2022-12-22T18:01:56.117Z,97280.29
2022-12-22T18:04:24.159Z,97277.41
2022-12-22T18:06:52.259Z,97278.30
2022-12-22T18:09:26.599Z,97277.29
2022-12-22T18:11:54.646Z,97278.40
2022-12-22T18:14:23.219Z,97279.64
2022-12-22T18:16:51.402Z,97269.86
2022-12-22T18:19:19.580Z,97264.37
2022-12-22T18:21:48.375Z,97271.08
2022-12-22T18:24:18.845Z,97270.76
2022-12-22T18:26:47.584Z,97266.17
2022-12-22T18:29:16.824Z,97262.80
2022-12-22T18:31:45.481Z,97261.68
2022-12-22T18:34:13.843Z,97261.73
2022-12-22T18:36:44.196Z,97258.92
2022-12-22T18:39:21.705Z,97258.22
2022-12-22T18:41:49.753Z,97253.36
2022-12-22T18:44:19.198Z,97243.52
2022-12-22T18:46:48.761Z,97239.36
2022-12-22T18:49:17.381Z,97237.70
2022-12-22T18:51:46.088Z,97244.48
2022-12-22T18:54:31.385Z,97246.52
2022-12-22T18:56:59.503Z,97245.86
2022-12-22T18:59:28.594Z,97248.65
2022-12-22T19:02:02.800Z,97255.48
2022-12-22T19:04:30.969Z,97256.92
2022-12-22T19:06:58.920Z,97254.00
2022-12-22T19:09:27.405Z,97257.89
2022-12-22T19:11:55.475Z,97256.25
2022-12-22T19:14:23.596Z,97252.40
2022-12-22T19:16:54.779Z,97255.72
2022-12-22T19:19:22.972Z,97253.75
2022-12-22T19:21:51.236Z,97254.01
2022-12-22T19:24:19.218Z,97258.17
2022-12-22T19:26:47.318Z,97255.72
2022-12-22T19:29:15.613Z,97258.60
2022-12-22T19:31:44.448Z,97262.55
2022-12-22T19:34:19.942Z,97263.57
2022-12-22T19:36:48.121Z,97260.83
2022-12-22T19:39:16.428Z,97258.71
2022-12-22T19:41:51.367Z,97258.60
2022-12-22T19:44:26.528Z,97256.36
2022-12-22T19:46:59.215Z,97257.01
2022-12-22T19:49:29.141Z,97256.64
2022-12-22T19:51:57.940Z,97256.69
2022-12-22T19:54:26.003Z,97255.92
2022-12-22T19:56:56.105Z,97246.48
2022-12-22T19:59:41.455Z,97244.18
2022-12-22T20:02:24.753Z,97237.40
2022-12-22T20:04:54.690Z,97229.71
2022-12-22T20:07:25.166Z,97224.91
2022-12-22T20:09:53.862Z,97227.63
2022-12-22T20:12:29.809Z,97228.91
2022-12-22T20:14:58.311Z,97229.49
2022-12-22T20:17:26.314Z,97234.89
2022-12-22T20:19:54.454Z,97239.48
2022-12-22T20:22:23.322Z,97238.15
2022-12-22T20:24:51.517Z,97234.09
2022-12-22T20:27:23.438Z,97226.52
2022-12-22T20:29:51.572Z,97224.05
2022-12-22T20:32:27.345Z,97231.36
2022-12-22T20:34:56.577Z,97227.63
2022-12-22T20:37:25.524Z,97222.39
2022-12-22T20:39:53.552Z,97220.80
2022-12-22T20:42:23.867Z,97222.66
2022-12-22T20:45:03.319Z,97222.08
2022-12-22T20:47:34.303Z,97225.86
2022-12-22T20:50:02.420Z,97223.09
2022-12-22T20:52:30.387Z,97224.91
2022-12-22T20:54:59.083Z,97226.23
2022-12-22T20:57:27.980Z,97222.60
2022-12-22T20:59:56.876Z,97222.93
2022-12-22T21:02:29.771Z,97224.36
2022-12-22T21:04:58.441Z,97218.44
2022-12-22T21:07:26.519Z,97219.08
2022-12-22T21:09:55.912Z,97222.17
2022-12-22T21:12:23.979Z,97231.95
2022-12-22T21:14:52.461Z,97229.23
2022-12-22T21:17:20.767Z,97229.96
2022-12-22T21:19:48.781Z,97225.96
2022-12-22T21:22:16.645Z,97224.48
2022-12-22T21:24:44.818Z,97220.00
2022-12-22T21:27:20.458Z,97210.92
2022-12-22T21:29:48.513Z,97204.04
2022-12-22T21:32:16.983Z,97198.27
2022-12-22T21:34:45.134Z,97199.39
2022-12-22T21:37:17.310Z,97199.77
2022-12-22T21:39:45.675Z,97196.95
2022-12-22T21:42:18.787Z,97198.81
2022-12-22T21:44:47.347Z,97200.09
2022-12-22T21:47:18.373Z,97200.83
2022-12-22T21:49:46.970Z,97202.44
2022-12-22T21:52:15.156Z,97203.08
2022-12-22T21:54:43.226Z,97206.08
2022-12-22T21:57:16.296Z,97207.08
2022-12-22T21:59:44.274Z,97205.42
2022-12-22T22:02:17.716Z,97203.45
2022-12-22T22:04:53.728Z,97208.46
2022-12-22T22:07:22.991Z,97206.18
2022-12-22T22:09:50.961Z,97200.20
2022-12-22T22:12:34.066Z,97197.67
2022-12-22T22:15:07.543Z,97196.88
2022-12-22T22:17:35.630Z,97195.07
2022-12-22T22:20:05.927Z,97192.06
2022-12-22T22:22:34.211Z,97194.27
2022-12-22T22:25:02.479Z,97192.11
2022-12-22T22:27:30.556Z,97189.17
2022-12-22T22:29:58.847Z,97182.13
2022-12-22T22:32:27.009Z,97176.84
2022-12-22T22:34:55.100Z,97165.70
2022-12-22T22:37:23.151Z,97163.88
2022-12-22T22:39:51.231Z,97160.63
2022-12-22T22:42:19.403Z,97158.21
2022-12-22T22:44:47.482Z,97155.39
2022-12-22T22:47:16.070Z,97157.42
2022-12-22T22:49:50.080Z,97155.94
2022-12-22T22:52:18.530Z,97158.42
2022-12-22T22:54:46.666Z,97155.34
2022-12-22T22:57:16.041Z,97156.14
2022-12-22T22:59:43.864Z,97158.66
2022-12-22T23:02:12.193Z,97159.41
2022-12-22T23:04:40.487Z,97157.59
2022-12-22T23:07:08.613Z,97156.84
2022-12-22T23:09:36.643Z,97156.19
2022-12-22T23:12:05.319Z,97150.85
2022-12-22T23:14:33.176Z,97146.97
2022-12-22T23:17:01.160Z,97142.21
2022-12-22T23:19:29.551Z,97144.23
2022-12-22T23:21:57.711Z,97145.93
2022-12-22T23:24:25.754Z,97146.95
2022-12-22T23:26:53.956Z,97146.31
2022-12-22T23:29:21.895Z,97150.44
2022-12-22T23:31:50.051Z,97157.90
2022-12-22T23:34:18.212Z,97159.66
2022-12-22T23:36:46.141Z,97159.23
2022-12-22T23:39:14.314Z,97162.23
2022-12-22T23:41:42.480Z,97158.16
2022-12-22T23:44:10.531Z,97165.06
2022-12-22T23:46:39.436Z,97169.61
2022-12-22T23:49:10.800Z,97177.91
2022-12-22T23:51:38.760Z,97175.46
2022-12-22T23:54:07.521Z,97176.42
2022-12-22T23:56:35.730Z,97176.27
2022-12-22T23:59:03.856Z,97184.33
